Mount Vernon, IL

7:33 AM CST on November 23, 2014 (GMT -0600)
Centralia Municipal | Change Station
CLOSE
Current Station
Airport
Location: Centralia,
Elevation: 535 ft
Nearby Weather Stations

Elev 535 ft 38.52 °N, 89.09 °W | Updated 18 minutes ago

Overcast
Overcast
53 °F
Feels Like 53 °F
N
10
Wind Variable Wind from SE

Today
High -- | Low -- °F
--% Chance of Precip.
Yesterday
High -- | Low -- °F
Precip. -- in
6:45 AM 4:38 PM
New Moon, 1% visible
Pressure 29.78 in
Visibility 10.0 miles
Clouds Scattered Clouds 11000 ft
Dew Point 45 °F
Humidity 75%
Rainfall 0.00 in
Snow Depth Not available.
UV 0 out of 12
Pollen .30 out of 12
Air Quality Not available.
Flu Activity Not available.
METAR KENL 231315Z AUTO 14009KT 10SM SCT110 12/07 A2978 RMK AO2 T01150072

More Conditions Fewer Conditions

Pressure 29.78 in
Visibility 10.0 miles
Clouds Scattered Clouds 11000 ft
Dew Point 45 °F
Humidity 75%
Rainfall 0.00 in
Snow Depth Not available.
UV 0 out of 12
Pollen .30 out of 12
Air Quality Not available.
Flu Activity Not available.
METAR KENL 231315Z AUTO 14009KT 10SM SCT110 12/07 A2978 RMK AO2 T01150072

More Conditions Fewer Conditions

10-Day Weather Forecast

Almanac

Astronomy

Nov. 23, 2014 Rise Set
Actual Time
Civil Twilight
Nautical Twilight
Astronomical Twilight
Moon
Length of Visible Light
Length of Day
Tomorrow will be .
, % of the Moon is Illuminated

Today's Extremes

State Highs State Lows

Community

WunderPhotos

Upload Photos

1,773,057 photos uploaded!

WunderBlogs® & News

Nearby

Air Quality

  Air Quality AQ Index Pollutant
Not available.

Snow Depth

Station Depth Elevation

Earthquake Activity

City Distance Mag. Time & Date
Minimum magnitude displayed is 2.5.

Coastal Water Temperatures

Place Temperature

Nearby Weather Stations